Time;durP1;ratioP1;P1;durP2;ratioP2;P2;SDS_P1;SDS_P2;PMS_P1;PMS_P2;Temp;Humidity;BMP_temperature;BMP_pressure;BME280_temperature;BME280_humidity;BME280_pressure;Samples;Min_cycle;Max_cycle;Signal;HPM_P1;HPM_P2
2022/06/06 00:01:15;;;;;;;59.05;34.70;;;;;;;16.82;73.90;101318.94;5094103;28;20074;-61
2022/06/06 00:03:41;;;;;;;54.58;34.40;;;;;;;16.81;74.09;101320.91;5095354;28;20040;-61
2022/06/06 00:06:12;;;;;;;48.53;32.28;;;;;;;16.80;74.11;101319.22;5103418;28;20997;-61
2022/06/06 00:08:39;;;;;;;51.58;32.55;;;;;;;16.81;74.03;101312.50;5084819;28;20032;-61
2022/06/06 00:11:04;;;;;;;50.63;31.50;;;;;;;16.84;74.28;101317.53;5084497;28;20036;-61
2022/06/06 00:13:31;;;;;;;50.63;32.00;;;;;;;16.86;74.32;101320.91;5095061;28;20072;-61
2022/06/06 00:15:57;;;;;;;49.70;32.15;;;;;;;16.83;74.24;101327.09;5105501;28;20059;-61
2022/06/06 00:18:23;;;;;;;51.47;32.95;;;;;;;16.82;74.21;101322.59;5098720;28;20030;-61
2022/06/06 00:20:48;;;;;;;49.33;31.25;;;;;;;16.85;74.41;101327.63;5095125;28;20028;-61
2022/06/06 00:23:13;;;;;;;50.38;30.33;;;;;;;16.80;74.35;101324.84;5107157;28;20046;-61
2022/06/06 00:25:38;;;;;;;52.10;32.30;;;;;;;16.76;74.45;101309.72;5103615;28;20062;-61
2022/06/06 00:28:04;;;;;;;48.38;30.10;;;;;;;16.84;74.22;101311.94;5096045;28;20032;-61
2022/06/06 00:30:29;;;;;;;47.95;30.00;;;;;;;16.81;74.17;101303.25;5082673;28;20055;-61
2022/06/06 00:35:38;;;;;;;47.25;30.17;;;;;;;16.78;73.96;101301.88;5090884;28;20047;-61
2022/06/06 00:38:04;;;;;;;49.80;30.67;;;;;;;16.70;73.94;101293.97;5089463;28;20016;-61
2022/06/06 00:40:30;;;;;;;51.22;29.00;;;;;;;16.72;74.17;101297.34;5070620;28;20044;-61
2022/06/06 00:42:56;;;;;;;49.35;29.38;;;;;;;16.74;74.25;101294.28;5070218;28;20029;-61
2022/06/06 00:45:35;;;;;;;45.63;29.60;;;;;;;16.78;74.02;101289.78;5071021;28;20026;-61
2022/06/06 00:48:10;;;;;;;44.45;28.70;;;;;;;16.75;74.00;101296.81;5070760;28;20037;-61
2022/06/06 00:50:38;;;;;;;48.75;29.83;;;;;;;16.74;74.06;101289.53;5084444;28;20916;-62
2022/06/06 00:53:05;;;;;;;47.05;29.80;;;;;;;16.76;74.03;101292.06;5077892;28;20089;-62
2022/06/06 00:55:41;;;;;;;46.28;28.40;;;;;;;16.77;73.65;101288.13;5070633;28;20039;-62
2022/06/06 00:58:11;;;;;;;47.72;29.10;;;;;;;16.71;74.08;101286.44;5070703;28;20490;-61
2022/06/06 01:00:38;;;;;;;47.53;29.92;;;;;;;16.77;73.84;101283.34;5070977;28;20035;-62
2022/06/06 01:03:09;;;;;;;50.38;29.45;;;;;;;16.74;73.89;101283.94;5070088;28;20463;-62
2022/06/06 01:05:35;;;;;;;51.72;31.38;;;;;;;16.68;74.15;101285.88;5080580;28;20025;-62
2022/06/06 01:08:03;;;;;;;51.15;30.15;;;;;;;16.72;74.21;101288.94;5074248;28;20028;-61
2022/06/06 01:10:29;;;;;;;47.20;29.60;;;;;;;16.75;73.88;101296.00;5088897;28;20028;-61
2022/06/06 01:12:55;;;;;;;49.88;30.23;;;;;;;16.72;74.08;101294.53;5088979;28;20024;-62
2022/06/06 01:15:24;;;;;;;56.33;34.10;;;;;;;16.68;73.94;101291.47;5090833;28;20055;-62
2022/06/06 01:18:13;;;;;;;57.83;36.53;;;;;;;16.60;73.90;101294.00;5081338;28;20482;-62
2022/06/06 01:21:22;;;;;;;56.83;35.22;;;;;;;16.72;73.76;101294.53;5091399;28;20050;-62
2022/06/06 01:24:01;;;;;;;56.45;34.97;;;;;;;16.69;73.88;101287.53;5088514;28;20050;-61
2022/06/06 01:26:53;;;;;;;61.67;37.47;;;;;;;16.72;74.01;101279.69;5092341;28;20032;-61
2022/06/06 01:29:34;;;;;;;55.20;35.85;;;;;;;16.70;74.03;101288.38;5087366;28;20663;-61
2022/06/06 01:32:04;;;;;;;58.35;36.50;;;;;;;16.65;74.46;101291.19;5098609;28;20036;-61
2022/06/06 01:34:34;;;;;;;62.28;38.28;;;;;;;16.61;74.60;101292.88;5099234;28;20118;-61
2022/06/06 01:37:03;;;;;;;55.88;36.45;;;;;;;16.61;74.48;101290.09;5094122;28;20444;-61
2022/06/06 01:39:31;;;;;;;59.65;37.42;;;;;;;16.61;74.32;101287.28;5104093;28;20016;-61
2022/06/06 01:42:14;;;;;;;59.90;37.47;;;;;;;16.68;74.18;101285.03;5097212;28;20070;-61
2022/06/06 01:44:49;;;;;;;55.03;37.05;;;;;;;16.63;74.29;101287.84;5095205;28;20101;-61
2022/06/06 01:47:23;;;;;;;56.53;36.55;;;;;;;16.63;74.53;101294.28;5105966;28;20048;-61
2022/06/06 01:49:49;;;;;;;55.33;36.42;;;;;;;16.64;74.78;101292.31;5096582;28;20446;-61
2022/06/06 01:52:16;;;;;;;53.00;34.55;;;;;;;16.61;75.02;101290.91;5101090;28;20063;-61
2022/06/06 01:54:42;;;;;;;52.38;34.33;;;;;;;16.63;74.95;101293.47;5097599;28;20039;-61
2022/06/06 01:57:11;;;;;;;45.97;32.67;;;;;;;16.60;75.07;101288.41;5101547;28;20528;-61
2022/06/06 01:59:37;;;;;;;49.90;32.63;;;;;;;16.61;75.12;101287.28;5096991;28;20036;-61
2022/06/06 02:02:03;;;;;;;49.13;30.02;;;;;;;16.52;75.20;101280.56;5099577;28;20028;-61
2022/06/06 02:04:28;;;;;;;45.70;31.67;;;;;;;16.58;74.97;101280.28;5098944;28;20039;-61
2022/06/06 02:06:54;;;;;;;44.53;29.08;;;;;;;16.61;74.91;101274.09;5091983;28;20029;-61
2022/06/06 02:09:19;;;;;;;41.58;28.70;;;;;;;16.63;74.67;101265.44;5085835;28;20027;-61
2022/06/06 02:11:44;;;;;;;44.83;29.13;;;;;;;16.64;74.48;101264.31;5108398;28;20110;-61
2022/06/06 02:14:11;;;;;;;41.17;27.30;;;;;;;16.62;74.82;101252.50;5099337;28;20040;-61
2022/06/06 02:16:38;;;;;;;40.03;27.10;;;;;;;16.63;74.51;101266.28;5085603;28;20381;-61
2022/06/06 02:19:03;;;;;;;44.15;28.98;;;;;;;16.60;74.57;101260.38;5107939;28;20045;-61
2022/06/06 02:21:29;;;;;;;41.10;28.10;;;;;;;16.51;74.57;101262.94;5097541;28;20025;-61
2022/06/06 02:23:54;;;;;;;43.53;27.65;;;;;;;16.57;74.60;101266.56;5099793;28;20020;-61
2022/06/06 02:26:19;;;;;;;45.63;27.75;;;;;;;16.58;74.76;101257.00;5093477;28;20039;-61
2022/06/06 02:28:45;;;;;;;40.10;25.90;;;;;;;16.58;74.71;101268.22;5080999;28;20025;-61
2022/06/06 02:31:10;;;;;;;41.90;26.88;;;;;;;16.57;74.50;101263.75;5073416;28;20040;-61
2022/06/06 02:33:36;;;;;;;42.50;27.98;;;;;;;16.58;74.62;101271.84;5073472;28;20077;-61
2022/06/06 02:36:02;;;;;;;45.38;28.70;;;;;;;16.62;74.08;101273.00;5075982;28;20035;-61
2022/06/06 02:38:29;;;;;;;44.72;28.52;;;;;;;16.56;74.49;101278.88;5094099;28;20051;-61
2022/06/06 02:40:54;;;;;;;43.78;29.05;;;;;;;16.60;74.28;101266.00;5113691;28;20391;-60
2022/06/06 02:43:21;;;;;;;45.70;29.08;;;;;;;16.61;73.78;101273.25;5100467;28;20030;-61
2022/06/06 02:45:48;;;;;;;48.00;29.02;;;;;;;16.59;74.10;101264.31;5093088;28;20039;-61
2022/06/06 02:48:14;;;;;;;46.92;29.52;;;;;;;16.51;74.01;101264.91;5091674;28;20032;-61
2022/06/06 02:50:41;;;;;;;40.78;27.25;;;;;;;16.54;74.11;101267.09;5091943;28;20111;-61
2022/06/06 02:53:06;;;;;;;42.53;28.08;;;;;;;16.50;74.09;101266.00;5090789;28;20428;-62
2022/06/06 02:55:34;;;;;;;42.78;27.42;;;;;;;16.50;74.44;101266.00;5096199;28;20023;-61
2022/06/06 02:58:01;;;;;;;41.45;26.73;;;;;;;16.51;74.29;101271.34;5080564;28;20033;-62
2022/06/06 03:00:29;;;;;;;45.53;28.10;;;;;;;16.42;74.49;101268.25;5074440;28;20058;-61
2022/06/06 03:02:54;;;;;;;44.17;27.08;;;;;;;16.48;74.40;101268.25;5092206;28;20083;-61
2022/06/06 03:05:20;;;;;;;45.03;27.42;;;;;;;16.50;74.22;101266.84;5092187;28;20116;-61
2022/06/06 03:08:05;;;;;;;47.72;28.90;;;;;;;16.53;74.04;101271.88;5092462;28;20164;-61
2022/06/06 03:11:02;;;;;;;45.05;28.77;;;;;;;16.56;73.85;101270.47;5085740;28;20484;-61
2022/06/06 03:14:10;;;;;;;43.75;26.27;;;;;;;16.56;73.59;101268.50;5085842;28;20024;-62
2022/06/06 03:22:53;;;;;;;47.15;28.50;;;;;;;16.51;73.31;101273.31;5096405;28;20046;-62
2022/06/06 03:25:38;;;;;;;44.25;28.00;;;;;;;16.50;72.92;101271.59;5091028;28;20387;-61
2022/06/06 03:28:30;;;;;;;45.80;28.52;;;;;;;16.40;72.64;101273.31;5083933;28;20490;-61
2022/06/06 03:31:46;;;;;;;45.88;26.65;;;;;;;16.45;72.94;101281.69;5102816;28;20031;-61
2022/06/06 03:34:17;;;;;;;46.05;27.05;;;;;;;16.42;72.89;101276.66;5031372;28;20037;-61
2022/06/06 03:37:01;;;;;;;45.95;27.63;;;;;;;16.41;72.63;101285.34;5093606;28;20073;-61
2022/06/06 03:39:45;;;;;;;43.22;26.55;;;;;;;16.29;72.90;101282.84;5095998;28;20027;-61
2022/06/06 03:42:20;;;;;;;41.10;26.42;;;;;;;16.34;72.42;101280.03;5090112;28;20036;-61
2022/06/06 03:45:17;;;;;;;40.67;25.88;;;;;;;16.35;72.34;101275.28;5083457;28;20020;-61
2022/06/06 03:48:07;;;;;;;37.20;24.45;;;;;;;16.36;71.97;101276.97;5092862;28;20046;-62
2022/06/06 03:50:46;;;;;;;34.17;23.20;;;;;;;16.28;71.50;101289.56;5103473;28;20645;-61
2022/06/06 03:53:26;;;;;;;36.03;23.38;;;;;;;16.29;71.74;101282.84;5094059;28;20043;-61
2022/06/06 03:56:18;;;;;;;38.03;25.10;;;;;;;16.30;71.80;101287.31;5096970;28;20058;-61
2022/06/06 03:58:43;;;;;;;33.40;21.70;;;;;;;16.27;70.94;101278.63;5083182;28;20050;-61
2022/06/06 04:01:10;;;;;;;33.40;22.50;;;;;;;16.20;71.50;101290.13;5103744;28;20035;-61
2022/06/06 04:03:37;;;;;;;35.55;21.42;;;;;;;16.23;71.45;101289.56;5085014;28;20087;-61
2022/06/06 04:06:04;;;;;;;36.08;22.20;;;;;;;16.19;71.33;101292.09;5082060;28;20043;-61
2022/06/06 04:08:32;;;;;;;32.92;21.80;;;;;;;16.18;71.26;101297.97;5103619;28;20059;-61
2022/06/06 04:11:09;;;;;;;36.40;23.10;;;;;;;16.21;71.29;101286.19;5101554;28;20039;-61
2022/06/06 04:13:41;;;;;;;31.63;20.42;;;;;;;16.22;71.09;101292.63;5082006;28;20052;-61
2022/06/06 04:16:18;;;;;;;31.15;20.20;;;;;;;16.18;71.11;101306.34;5079119;28;20073;-61
2022/06/06 04:18:56;;;;;;;32.35;19.98;;;;;;;16.12;70.92;101304.69;5091197;28;20115;-61
2022/06/06 04:21:50;;;;;;;32.50;20.02;;;;;;;16.05;71.02;101301.31;5088911;28;20054;-61
2022/06/06 04:24:41;;;;;;;30.08;19.17;;;;;;;16.02;71.06;101313.91;5088105;28;20057;-61
2022/06/06 04:27:26;;;;;;;28.45;18.40;;;;;;;16.08;70.91;101309.19;5074309;28;20032;-61
2022/06/06 04:30:00;;;;;;;27.25;18.30;;;;;;;16.07;70.58;101315.88;5070088;28;20028;-61
2022/06/06 04:32:37;;;;;;;28.13;17.92;;;;;;;16.02;70.19;101313.91;5092156;28;20028;-61
2022/06/06 04:35:26;;;;;;;29.98;18.23;;;;;;;16.08;70.49;101320.38;5110818;28;20085;-61
2022/06/06 04:37:59;;;;;;;24.85;17.15;;;;;;;16.02;69.93;101321.47;5076395;27;20143;-61
2022/06/06 04:40:53;;;;;;;;;;;;;;;16.17;70.25;101316.72;5091645;28;20543;-61
2022/06/06 04:43:33;;;;;;;24.67;17.65;;;;;;;16.03;69.69;101317.53;5078565;28;19916;-61
2022/06/06 04:46:20;;;;;;;24.63;15.68;;;;;;;16.05;69.42;101315.31;5088205;28;20032;-61
2022/06/06 04:48:46;;;;;;;21.67;16.50;;;;;;;15.99;68.76;101324.81;5109779;28;20036;-61
2022/06/06 04:51:16;;;;;;;22.80;16.42;;;;;;;15.94;68.80;101318.09;5089440;28;20024;-62
2022/06/06 04:53:47;;;;;;;24.17;17.23;;;;;;;15.89;69.06;101318.09;5090989;28;20028;-61
2022/06/06 04:56:15;;;;;;;21.95;17.13;;;;;;;15.92;68.92;101314.75;5091081;28;20054;-61
2022/06/06 04:58:43;;;;;;;23.88;16.98;;;;;;;15.83;68.34;101313.59;5085367;28;20046;-61
2022/06/06 05:01:10;;;;;;;22.60;17.17;;;;;;;15.85;68.61;101316.13;5082620;28;20051;-61
2022/06/06 05:03:42;;;;;;;23.88;17.85;;;;;;;15.87;68.47;101314.72;5070278;28;20040;-62
2022/06/06 05:06:47;;;;;;;26.08;18.95;;;;;;;15.99;68.65;101319.22;5070675;28;20043;-61
2022/06/06 05:09:29;;;;;;;23.35;19.73;;;;;;;15.93;67.95;101322.03;5062300;28;20032;-61
2022/06/06 05:12:20;;;;;;;23.63;19.35;;;;;;;15.93;68.42;101315.59;5070440;28;20040;-61
2022/06/06 05:15:00;;;;;;;22.88;19.85;;;;;;;15.98;68.55;101320.34;5078724;28;20054;-62
2022/06/06 05:17:53;;;;;;;24.98;19.83;;;;;;;15.99;68.23;101322.03;5095878;28;20031;-62
2022/06/06 05:20:40;;;;;;;23.70;18.95;;;;;;;15.97;67.79;101318.69;5080853;28;20029;-62
2022/06/06 05:23:19;;;;;;;24.73;18.98;;;;;;;16.03;67.70;101323.16;5075496;28;20081;-62
2022/06/06 05:25:59;;;;;;;25.55;20.02;;;;;;;16.03;66.88;101325.94;5090803;28;20826;-62
2022/06/06 05:28:46;;;;;;;22.92;18.38;;;;;;;16.02;66.85;101330.72;5104678;28;20131;-62
2022/06/06 05:31:18;;;;;;;20.75;18.45;;;;;;;16.09;66.89;101336.06;5078468;28;20493;-60
2022/06/06 05:33:49;;;;;;;;;;;;;;;16.29;67.50;101322.06;5102378;28;20036;-60
2022/06/06 05:36:40;;;;;;;21.92;18.42;;;;;;;16.26;67.23;101330.16;5099044;28;19928;-62
2022/06/06 05:39:54;;;;;;;22.42;17.85;;;;;;;16.29;67.22;101318.41;5078507;28;20378;-62
2022/06/06 05:42:37;;;;;;;21.23;16.58;;;;;;;16.30;67.06;101328.50;5106219;28;20078;-62
2022/06/06 05:45:22;;;;;;;20.30;16.40;;;;;;;16.30;66.84;101343.34;5097432;28;20367;-61
2022/06/06 05:48:04;;;;;;;17.55;15.63;;;;;;;16.25;66.30;101337.75;5106261;28;20080;-61
2022/06/06 05:50:44;;;;;;;17.85;14.82;;;;;;;16.24;66.13;101332.44;5098608;28;20028;-61
2022/06/06 05:53:27;;;;;;;19.67;16.27;;;;;;;16.20;66.56;101338.59;5088193;28;20463;-62
2022/06/06 05:56:11;;;;;;;17.40;15.02;;;;;;;16.27;66.55;101334.66;5091292;28;20371;-61
2022/06/06 05:59:01;;;;;;;17.88;16.02;;;;;;;16.22;66.12;101329.88;5078940;28;20043;-62
2022/06/06 06:01:34;;;;;;;17.60;15.15;;;;;;;16.26;65.75;101333.81;5080527;28;20445;-62
2022/06/06 06:04:31;;;;;;;19.08;15.27;;;;;;;16.22;64.66;101335.50;5112498;28;20055;-61
2022/06/06 06:07:30;;;;;;;18.10;14.60;;;;;;;16.29;65.66;101330.47;5067253;28;20132;-61
2022/06/06 06:10:28;;;;;;;19.70;15.23;;;;;;;16.39;65.68;101329.63;5100011;28;20032;-61
2022/06/06 06:13:20;;;;;;;17.80;14.50;;;;;;;16.47;65.24;101336.63;5109233;28;20031;-61
2022/06/06 06:15:46;;;;;;;14.38;12.85;;;;;;;16.49;64.57;101337.19;5087329;28;20066;-62
2022/06/06 06:18:29;;;;;;;16.33;12.27;;;;;;;16.59;64.78;101346.44;5091934;28;20099;-62
2022/06/06 06:21:01;;;;;;;12.40;10.57;;;;;;;16.68;63.77;101338.28;5083876;28;20092;-62
2022/06/06 06:23:29;;;;;;;12.93;10.68;;;;;;;16.72;64.15;101344.16;5092212;28;20447;-63
2022/06/06 06:25:59;;;;;;;11.73;9.30;;;;;;;16.74;63.56;101348.41;5090783;28;20039;-63
2022/06/06 06:28:32;;;;;;;12.52;9.40;;;;;;;16.68;63.61;101347.53;5092691;28;20026;-64
2022/06/06 06:31:22;;;;;;;10.65;8.48;;;;;;;16.78;64.17;101357.94;5089984;28;20024;-62
2022/06/06 06:33:57;;;;;;;9.30;7.05;;;;;;;16.83;63.19;101359.88;5093902;28;20055;-62
2022/06/06 06:36:46;;;;;;;9.27;6.18;;;;;;;16.80;63.36;101358.47;5079565;28;20032;-62
2022/06/06 06:39:39;;;;;;;8.73;5.90;;;;;;;16.82;63.34;101361.84;5088235;28;20371;-63
2022/06/06 06:42:24;;;;;;;9.45;5.55;;;;;;;16.88;63.63;101360.72;5075360;28;20016;-61
2022/06/06 06:44:59;;;;;;;8.07;4.72;;;;;;;16.98;62.87;101359.00;5095136;28;20024;-60
2022/06/06 06:47:33;;;;;;;5.80;4.18;;;;;;;17.04;62.72;101364.31;5088654;28;20023;-61
2022/06/06 06:50:18;;;;;;;6.68;4.53;;;;;;;17.04;63.05;101372.72;5077684;28;20055;-61
2022/06/06 06:53:16;;;;;;;5.18;3.97;;;;;;;17.05;63.15;101373.56;5099895;28;20444;-61
2022/06/06 06:56:09;;;;;;;5.00;3.63;;;;;;;17.04;62.68;101378.34;5096100;28;20071;-62
2022/06/06 06:58:54;;;;;;;4.35;2.95;;;;;;;16.99;60.83;101380.31;5095246;28;20035;-61
2022/06/06 07:01:34;;;;;;;5.30;3.17;;;;;;;17.07;61.17;101372.16;5098406;28;20072;-61
2022/06/06 07:11:00;;;;;;;4.82;2.22;;;;;;;17.45;61.15;101377.38;5070936;28;20098;-61
2022/06/06 07:13:48;;;;;;;4.93;2.40;;;;;;;17.49;59.96;101372.84;5080402;28;20054;-61
2022/06/06 07:16:38;;;;;;;3.85;1.95;;;;;;;17.60;59.56;101380.13;5098918;28;20053;-60
2022/06/06 07:19:08;;;;;;;7.20;2.10;;;;;;;17.59;58.22;101384.06;5098260;28;20121;-61
2022/06/06 07:21:35;;;;;;;2.45;1.88;;;;;;;17.49;57.21;101372.84;5096443;28;20085;-61
2022/06/06 07:24:04;;;;;;;3.97;1.88;;;;;;;17.38;56.62;101384.16;5095694;28;20450;-61
2022/06/06 07:26:31;;;;;;;5.60;1.90;;;;;;;17.32;57.17;101379.66;5095202;28;20036;-61
2022/06/06 07:28:57;;;;;;;2.88;1.73;;;;;;;17.34;57.38;101374.63;5096705;28;20024;-61
2022/06/06 07:31:27;;;;;;;5.82;2.10;;;;;;;17.33;57.61;101381.38;5087672;28;20049;-61
2022/06/06 07:34:14;;;;;;;4.28;2.22;;;;;;;17.34;58.23;101380.22;5085800;28;20382;-61
2022/06/06 07:36:48;;;;;;;5.07;2.08;;;;;;;17.36;57.33;101394.81;5086707;28;20032;-61
2022/06/06 07:39:50;;;;;;;3.90;2.10;;;;;;;17.43;58.34;101388.91;5083372;28;20032;-61
2022/06/06 07:42:18;;;;;;;4.07;2.05;;;;;;;17.50;57.34;101397.84;5084953;28;20035;-61
2022/06/06 07:45:02;;;;;;;2.65;1.63;;;;;;;17.51;56.52;101387.47;5077594;28;20055;-61
2022/06/06 07:47:52;;;;;;;2.70;1.80;;;;;;;17.47;57.40;101392.81;5083358;28;20075;-61
2022/06/06 07:50:24;;;;;;;3.08;1.80;;;;;;;17.48;57.50;101391.66;5083416;28;20032;-61
2022/06/06 07:52:58;;;;;;;;;;;;;;;17.70;59.12;101391.31;5082711;28;20028;-60
2022/06/06 07:55:48;;;;;;;5.50;1.60;;;;;;;17.60;58.22;101391.34;5084867;28;19915;-61
2022/06/06 07:58:30;;;;;;;4.78;2.25;;;;;;;17.62;57.85;101391.91;5078916;28;20533;-62
2022/06/06 08:01:21;;;;;;;3.78;1.83;;;;;;;17.60;57.81;101391.34;5084179;28;20032;-61
2022/06/06 08:03:56;;;;;;;4.43;1.50;;;;;;;17.56;57.41;101391.06;5091395;28;20079;-61
2022/06/06 08:06:47;;;;;;;4.18;1.88;;;;;;;17.59;57.51;101386.88;5074754;28;20032;-61
2022/06/06 08:09:38;;;;;;;3.28;1.80;;;;;;;17.69;56.97;101397.22;5079875;28;20136;-60
2022/06/06 08:12:40;;;;;;;3.22;1.60;;;;;;;17.74;57.67;101385.97;5068989;28;20047;-61
2022/06/06 08:15:53;;;;;;;2.05;1.52;;;;;;;17.74;57.61;101389.59;5068136;28;20066;-61
2022/06/06 08:18:51;;;;;;;4.65;1.77;;;;;;;17.77;58.11;101389.06;5043630;28;20058;-61
2022/06/06 08:21:34;;;;;;;7.30;1.77;;;;;;;17.69;56.67;101384.03;5084981;28;20699;-61
2022/06/06 08:24:02;;;;;;;3.15;1.67;;;;;;;17.68;56.66;101387.94;5085417;28;20032;-61
2022/06/06 08:26:33;;;;;;;2.17;1.58;;;;;;;17.62;56.57;101389.09;5080080;28;20032;-62
2022/06/06 08:29:00;;;;;;;2.97;1.50;;;;;;;17.60;56.50;101380.94;5082331;28;20165;-61
2022/06/06 08:31:25;;;;;;;3.17;1.30;;;;;;;17.59;56.79;101381.25;5076412;28;20531;-65
2022/06/06 08:33:51;;;;;;;2.15;1.23;;;;;;;17.52;56.94;101377.91;5087147;28;20108;-64
2022/06/06 08:36:30;;;;;;;2.90;1.45;;;;;;;17.59;57.20;101379.28;5083998;28;20738;-66
2022/06/06 08:39:01;;;;;;;2.70;1.50;;;;;;;17.67;57.45;101381.47;5083713;28;20494;-64
2022/06/06 08:42:09;;;;;;;3.47;1.40;;;;;;;17.65;57.78;101371.69;5070070;28;20103;-66
2022/06/06 08:44:45;;;;;;;2.17;1.35;;;;;;;17.64;57.90;101370.84;5068267;28;20066;-63
2022/06/06 08:47:17;;;;;;;2.95;1.60;;;;;;;17.66;56.80;101364.94;5077093;28;20043;-64
2022/06/06 08:53:09;;;;;;;4.30;2.15;;;;;;;17.52;56.36;101361.91;5077548;28;20043;-64
2022/06/06 08:55:51;;;;;;;5.55;3.50;;;;;;;17.61;56.31;101362.16;5078057;28;20036;-65
2022/06/06 08:58:36;;;;;;;8.65;5.60;;;;;;;17.59;56.43;101370.03;5075328;28;20031;-63
2022/06/06 09:01:23;;;;;;;6.63;4.50;;;;;;;17.62;56.15;101363.84;5083144;28;20109;-63
2022/06/06 09:04:15;;;;;;;4.60;3.83;;;;;;;17.64;56.51;101358.75;5080851;28;20495;-64
2022/06/06 09:06:59;;;;;;;5.63;3.20;;;;;;;17.74;56.36;101369.94;5080250;28;20036;-64
2022/06/06 09:09:57;;;;;;;4.38;2.95;;;;;;;17.90;57.16;101368.75;5092575;28;20116;-64
2022/06/06 09:12:23;;;;;;;3.75;2.72;;;;;;;17.96;56.85;101360.28;5077661;28;20025;-65
2022/06/06 09:14:57;;;;;;;4.55;2.90;;;;;;;17.98;56.82;101364.50;5082046;28;20042;-65
2022/06/06 09:17:42;;;;;;;5.60;3.55;;;;;;;17.98;57.17;101369.28;5079136;28;20024;-63
2022/06/06 09:20:42;;;;;;;4.95;3.08;;;;;;;17.95;57.00;101365.06;5080834;28;20067;-63
2022/06/06 09:23:22;;;;;;;3.85;2.50;;;;;;;17.88;57.30;101358.94;5072290;28;20029;-61
2022/06/06 09:26:25;;;;;;;4.68;2.55;;;;;;;17.86;57.37;101355.59;5077527;28;20039;-63
2022/06/06 09:28:58;;;;;;;4.22;2.20;;;;;;;17.81;56.75;101353.66;5064386;28;20071;-66
2022/06/06 09:31:34;;;;;;;3.20;1.67;;;;;;;17.83;56.94;101345.78;5076847;28;20062;-64
2022/06/06 09:34:29;;;;;;;6.75;1.55;;;;;;;17.87;55.82;101349.69;5093470;28;20454;-62
2022/06/06 09:37:15;;;;;;;2.53;1.80;;;;;;;18.13;56.91;101347.56;5037060;28;20054;-62
2022/06/06 09:40:22;;;;;;;4.07;1.45;;;;;;;18.26;56.24;101333.97;5077131;28;20044;-63
2022/06/06 09:43:06;;;;;;;2.70;1.45;;;;;;;18.37;55.30;101336.41;5063090;28;20115;-63
2022/06/06 09:45:44;;;;;;;1.80;1.35;;;;;;;18.54;55.18;101335.97;5078923;28;20368;-62
2022/06/06 09:48:25;;;;;;;2.70;1.30;;;;;;;18.69;55.19;101334.16;5083564;28;20510;-62
2022/06/06 09:51:08;;;;;;;1.77;1.15;;;;;;;18.75;54.12;101338.66;5089910;28;20045;-63
2022/06/06 10:00:30;;;;;;;1.48;1.10;;;;;;;18.73;52.25;101329.66;5080422;28;20073;-62
2022/06/06 10:03:23;;;;;;;3.78;1.20;;;;;;;18.78;51.86;101324.81;5075010;28;20070;-61
2022/06/06 10:06:00;;;;;;;3.58;1.67;;;;;;;18.89;52.03;101322.72;5072991;28;20037;-61
2022/06/06 10:09:02;;;;;;;3.53;1.10;;;;;;;18.93;52.48;101328.59;5077669;28;20119;-62
2022/06/06 10:12:09;;;;;;;3.28;1.05;;;;;;;18.84;52.74;101318.00;5078852;28;20025;-62
2022/06/06 10:14:52;;;;;;;1.60;1.05;;;;;;;18.83;52.00;101318.31;5070169;28;20052;-62
2022/06/06 10:17:38;;;;;;;6.90;1.52;;;;;;;18.76;51.77;101318.66;5084132;28;20040;-61
2022/06/06 10:20:42;;;;;;;5.07;1.38;;;;;;;18.72;52.74;101314.75;5078939;28;20028;-62
2022/06/06 10:23:35;;;;;;;4.07;1.30;;;;;;;18.65;52.65;101315.06;5051513;28;20174;-62
2022/06/06 10:26:20;;;;;;;1.75;1.17;;;;;;;18.57;52.25;101307.28;5074802;28;20040;-62
2022/06/06 10:28:52;;;;;;;4.32;1.10;;;;;;;18.53;52.03;101314.63;5076783;28;20036;-62
2022/06/06 10:31:45;;;;;;;2.17;1.35;;;;;;;18.72;52.62;101313.91;5078240;28;21321;-61
2022/06/06 10:34:35;;;;;;;1.73;1.30;;;;;;;18.87;53.15;101303.34;5091994;28;20028;-62
2022/06/06 10:37:07;;;;;;;3.00;1.10;;;;;;;18.97;52.37;101313.63;5089169;28;20043;-62
2022/06/06 10:39:49;;;;;;;3.93;1.30;;;;;;;19.08;51.68;101303.13;5083630;28;20017;-63
2022/06/06 10:42:34;;;;;;;2.58;1.10;;;;;;;19.04;51.19;101319.75;5071671;28;20055;-61
2022/06/06 10:45:02;;;;;;;2.40;1.02;;;;;;;19.04;51.48;101332.97;5081289;28;20038;-62
2022/06/06 10:47:55;;;;;;;1.42;1.10;;;;;;;19.13;51.87;101331.19;5073526;28;20047;-62
2022/06/06 10:54:04;;;;;;;2.50;1.17;;;;;;;19.28;52.58;101313.28;5078432;28;20078;-62
2022/06/06 10:56:45;;;;;;;2.00;1.25;;;;;;;19.34;51.95;101323.34;5078078;28;20044;-62
2022/06/06 10:59:48;;;;;;;4.63;1.13;;;;;;;19.47;52.98;101316.13;5076025;28;20071;-61
2022/06/06 11:02:34;;;;;;;3.08;1.23;;;;;;;19.59;52.28;101316.53;5088775;28;20115;-63
2022/06/06 11:05:13;;;;;;;2.53;1.10;;;;;;;19.61;51.02;101308.63;5088103;28;20028;-62
2022/06/06 11:08:12;;;;;;;2.10;1.23;;;;;;;19.53;50.37;101320.53;5076868;28;20101;-60
2022/06/06 11:11:15;;;;;;;1.88;1.20;;;;;;;19.44;51.44;101305.47;5074768;28;20061;-62
2022/06/06 11:13:52;;;;;;;;;;;;;;;19.49;51.46;101300.63;5077805;28;20032;-63
2022/06/06 11:16:48;;;;;;;4.20;0.90;;;;;;;19.35;50.88;101292.06;5073545;28;19920;-64
2022/06/06 11:19:32;;;;;;;5.18;1.17;;;;;;;19.43;51.86;101284.09;5078057;28;20113;-63
2022/06/06 11:22:21;;;;;;;1.27;1.10;;;;;;;19.51;51.10;101294.69;5086671;28;20044;-62
2022/06/06 11:24:56;;;;;;;1.83;1.17;;;;;;;19.65;50.30;101281.56;5076205;28;20031;-62
2022/06/06 11:27:59;;;;;;;4.13;1.08;;;;;;;19.74;50.29;101274.09;5075052;28;20092;-62
2022/06/06 11:30:43;;;;;;;;;;;;;;;19.82;51.32;101275.41;5081480;28;20435;-62
2022/06/06 11:33:42;;;;;;;2.28;1.10;;;;;;;19.77;48.85;101273.50;5072190;28;19965;-61
2022/06/06 11:36:46;;;;;;;1.80;1.08;;;;;;;19.73;49.70;101292.16;5076585;28;20032;-62
2022/06/06 11:39:25;;;;;;;2.22;1.13;;;;;;;19.66;49.02;101271.13;5080005;28;20399;-62
2022/06/06 11:42:42;;;;;;;3.40;1.10;;;;;;;19.62;49.70;101287.81;5080353;28;20064;-62
2022/06/06 11:45:19;;;;;;;2.58;1.05;;;;;;;19.60;48.55;101281.59;5082477;28;20036;-62
2022/06/06 11:48:11;;;;;;;3.80;1.00;;;;;;;19.60;49.78;101287.22;5080367;28;20051;-62
2022/06/06 11:51:09;;;;;;;2.47;1.13;;;;;;;19.57;49.82;101288.69;5081390;28;20040;-62
2022/06/06 11:53:37;;;;;;;2.92;0.93;;;;;;;19.49;48.49;101294.13;5071266;28;20491;-63
2022/06/06 11:56:39;;;;;;;3.90;1.30;;;;;;;19.45;49.91;101293.06;5085980;28;20892;-63
2022/06/06 11:59:13;;;;;;;3.70;1.20;;;;;;;19.38;48.72;101288.66;5078961;28;20031;-63
2022/06/06 12:02:12;;;;;;;2.25;1.08;;;;;;;19.37;49.62;101289.81;5078275;28;20119;-64
2022/06/06 12:05:15;;;;;;;3.47;1.08;;;;;;;19.34;49.92;101284.78;5081617;28;20978;-63
2022/06/06 12:07:58;;;;;;;2.88;0.80;;;;;;;19.20;48.52;101285.81;5083382;28;20043;-64
2022/06/06 12:10:34;;;;;;;2.38;1.30;;;;;;;19.10;49.02;101284.81;5082225;28;20044;-64
2022/06/06 12:13:37;;;;;;;3.63;1.20;;;;;;;19.11;49.97;101285.63;5070620;28;20056;-64
2022/06/06 12:16:26;;;;;;;2.08;1.10;;;;;;;19.03;50.03;101289.13;5096786;28;20092;-62
2022/06/06 12:19:09;;;;;;;2.63;0.95;;;;;;;19.02;50.09;101287.41;5084352;28;20024;-64
2022/06/06 12:22:07;;;;;;;3.85;0.90;;;;;;;19.07;49.92;101284.56;5069390;28;20044;-64
2022/06/06 12:24:35;;;;;;;1.80;1.02;;;;;;;19.11;49.62;101285.63;5053786;28;20047;-64
2022/06/06 12:27:18;;;;;;;3.05;0.98;;;;;;;19.08;49.84;101280.59;5073712;28;20036;-64
2022/06/06 12:30:14;;;;;;;5.00;1.10;;;;;;;19.12;50.29;101274.06;5077803;28;20061;-64
2022/06/06 12:32:59;;;;;;;1.92;1.10;;;;;;;19.13;50.54;101291.78;5077343;28;20032;-64
2022/06/06 12:35:48;;;;;;;3.67;1.10;;;;;;;19.10;49.88;101283.97;5073206;28;20028;-64
2022/06/06 12:38:30;;;;;;;3.22;0.95;;;;;;;19.03;48.92;101284.31;5080696;28;20028;-63
2022/06/06 12:41:11;;;;;;;3.83;1.10;;;;;;;18.99;49.31;101285.22;5081438;28;20039;-63
2022/06/06 12:43:56;;;;;;;1.67;0.82;;;;;;;18.98;49.87;101281.56;5079928;28;20367;-63